KUIN/UIN METAR and TAF weather

Enter ICAO airport designator
Station Type Date Time Source
KUIN METAR 2021/05/14 13:54 UTC NOAA

KUIN 141354Z AUTO 20009KT 10SM CLR 15/03 A3034 RMK AO2 SLP272 T01500028


Station Type Date Time Source
KUIN Decoded METAR 2021/05/14 13:54 UTC NOAA

QUINCY MUNI. BALDWIN FIELD, IL, United States (KUIN) 39-56N 091-12W
May 14, 2021 - 09:54 AM EDT / 2021.05.14 1354 UTC
Wind: from the SSW (200 degrees) at 10 MPH (9 KT):0
Visibility: 10 mile(s):0
Sky conditions: clear
Temperature: 59.0 F (15.0 C)
Dew Point: 37.0 F (2.8 C)
Relative Humidity: 43%
Pressure (altimeter): 30.34 in. Hg (1027 hPa)
ob: KUIN 141354Z AUTO 20009KT 10SM CLR 15/03 A3034 RMK AO2 SLP272 T01500028
cycle: 14

Station Type Date Time Source
KUIN TAF 2021/05/14 12:22 UTC NOAA

TAF KUIN 141120Z 1412/1512 16009KT P6SM SCT250
FM150800 17009KT P6SM VCSH OVC060

Example: see airport list